createdAt,value
2018-09-03T00:04:16.022Z,16.10
2018-09-03T00:06:44.525Z,14.50
2018-09-03T00:09:12.928Z,15.03
2018-09-03T00:11:41.361Z,13.87
2018-09-03T00:14:09.785Z,14.60
2018-09-03T00:16:38.240Z,14.30
2018-09-03T00:19:07.371Z,14.70
2018-09-03T00:21:35.796Z,14.80
2018-09-03T00:24:04.326Z,14.93
2018-09-03T00:26:32.735Z,16.77
2018-09-03T00:29:01.164Z,14.97
2018-09-03T00:31:34.969Z,14.97
2018-09-03T00:34:08.661Z,15.07
2018-09-03T00:36:42.396Z,14.90
2018-09-03T00:39:16.252Z,15.07
2018-09-03T00:41:49.980Z,16.23
2018-09-03T00:44:23.558Z,14.93
2018-09-03T00:46:56.711Z,14.00
2018-09-03T00:49:25.228Z,13.53
2018-09-03T00:51:53.699Z,14.43
2018-09-03T00:54:22.438Z,14.10
2018-09-03T00:56:50.947Z,16.17
2018-09-03T00:59:19.531Z,15.90
2018-09-03T01:01:48.023Z,14.00
2018-09-03T01:04:16.828Z,15.23
2018-09-03T01:07:01.091Z,15.97
2018-09-03T01:09:29.557Z,15.10
2018-09-03T01:11:57.974Z,15.37
2018-09-03T01:14:26.489Z,15.37
2018-09-03T01:16:54.911Z,16.47
2018-09-03T01:19:23.348Z,16.97
2018-09-03T01:21:51.741Z,16.57
2018-09-03T01:24:20.216Z,15.83
2018-09-03T01:26:48.663Z,15.80
2018-09-03T01:29:17.124Z,15.87
2018-09-03T01:31:45.557Z,16.90
2018-09-03T01:34:13.950Z,17.50
2018-09-03T01:36:42.905Z,16.10
2018-09-03T01:39:11.309Z,16.80
2018-09-03T01:41:39.741Z,16.43
2018-09-03T01:44:08.253Z,16.60
2018-09-03T01:46:36.669Z,16.90
2018-09-03T01:49:05.161Z,16.53
2018-09-03T01:51:33.596Z,15.83
2018-09-03T01:54:02.006Z,14.40
2018-09-03T01:56:30.445Z,15.67
2018-09-03T01:58:58.848Z,17.20
2018-09-03T02:01:27.301Z,15.70
2018-09-03T02:03:55.825Z,14.37
2018-09-03T02:06:24.273Z,15.43
2018-09-03T02:08:52.689Z,15.03
2018-09-03T02:11:21.133Z,14.53
2018-09-03T02:13:49.567Z,15.17
2018-09-03T02:16:24.008Z,15.37
2018-09-03T02:18:52.473Z,16.00
2018-09-03T02:21:20.949Z,16.23
2018-09-03T02:23:49.465Z,16.93
2018-09-03T02:29:20.446Z,14.77
2018-09-03T02:31:48.878Z,15.43
2018-09-03T02:34:17.335Z,14.67
2018-09-03T02:36:45.815Z,15.30
2018-09-03T02:39:14.309Z,14.10
2018-09-03T02:41:42.722Z,14.13
2018-09-03T02:44:11.208Z,13.67
2018-09-03T02:49:42.355Z,13.43
2018-09-03T02:52:10.766Z,12.90
2018-09-03T02:54:39.205Z,12.50
2018-09-03T02:57:07.635Z,14.27
2018-09-03T02:59:36.161Z,13.77
2018-09-03T03:02:04.636Z,15.37
2018-09-03T03:04:33.146Z,16.30
2018-09-03T03:07:01.650Z,15.30
2018-09-03T03:09:30.085Z,15.77
2018-09-03T03:11:58.550Z,16.20
2018-09-03T03:14:26.981Z,14.93
2018-09-03T03:16:55.446Z,17.37
2018-09-03T03:19:23.897Z,15.93
2018-09-03T03:21:52.305Z,16.83
2018-09-03T03:24:20.914Z,17.80
2018-09-03T03:26:49.356Z,19.77
2018-09-03T03:29:17.756Z,23.13
2018-09-03T03:31:46.201Z,21.07
2018-09-03T03:34:14.642Z,19.03
2018-09-03T03:36:43.106Z,19.40
2018-09-03T03:39:11.543Z,18.17
2018-09-03T03:41:39.986Z,17.10
2018-09-03T03:44:08.485Z,19.70
2018-09-03T03:46:36.945Z,17.27
2018-09-03T03:49:05.492Z,15.67
2018-09-03T03:51:33.999Z,15.87
2018-09-03T03:54:02.421Z,17.67
2018-09-03T03:56:30.926Z,19.63
2018-09-03T03:58:59.369Z,17.80
2018-09-03T04:01:27.809Z,19.37
2018-09-03T04:03:56.241Z,17.97
2018-09-03T04:06:24.713Z,21.83
2018-09-03T04:08:53.140Z,22.90
2018-09-03T04:11:21.532Z,17.43
2018-09-03T04:13:49.981Z,18.77
2018-09-03T04:16:18.446Z,20.70
2018-09-03T04:18:46.885Z,19.90
2018-09-03T04:21:15.281Z,20.37
2018-09-03T04:23:43.755Z,19.57
2018-09-03T04:26:12.153Z,20.37
2018-09-03T04:28:40.672Z,20.20
2018-09-03T04:31:09.077Z,20.97
2018-09-03T04:33:37.505Z,21.03
2018-09-03T04:36:05.968Z,21.10
2018-09-03T04:38:34.442Z,21.50
2018-09-03T04:41:02.885Z,20.37
2018-09-03T04:43:31.357Z,19.73
2018-09-03T04:46:00.129Z,19.13
2018-09-03T04:48:28.581Z,21.87
2018-09-03T04:50:57.037Z,21.13
2018-09-03T04:53:25.489Z,21.13
2018-09-03T04:55:53.919Z,22.87
2018-09-03T04:58:22.364Z,19.87
2018-09-03T05:00:50.800Z,20.53
2018-09-03T05:03:19.246Z,21.63
2018-09-03T05:05:47.786Z,23.37
2018-09-03T05:08:18.050Z,23.80
2018-09-03T05:10:46.541Z,23.73
2018-09-03T05:13:14.993Z,23.03
2018-09-03T05:15:43.437Z,23.53
2018-09-03T05:18:11.921Z,22.77
2018-09-03T05:20:40.373Z,25.73
2018-09-03T05:23:08.847Z,22.93
2018-09-03T05:25:37.261Z,24.57
2018-09-03T05:28:05.741Z,26.40
2018-09-03T05:30:34.184Z,24.13
2018-09-03T05:33:02.676Z,26.93
2018-09-03T05:35:31.081Z,21.27
2018-09-03T05:37:59.537Z,23.60
2018-09-03T05:40:27.953Z,23.13
2018-09-03T05:42:56.423Z,24.63
2018-09-03T05:45:24.884Z,25.67
2018-09-03T05:47:53.338Z,24.77
2018-09-03T05:50:21.810Z,23.87
2018-09-03T05:52:50.229Z,22.87
2018-09-03T05:55:18.752Z,25.30
2018-09-03T05:57:47.246Z,23.67
2018-09-03T06:00:15.789Z,26.70
2018-09-03T06:02:44.446Z,25.43
2018-09-03T06:05:12.999Z,23.53
2018-09-03T06:07:42.033Z,27.30
2018-09-03T06:10:10.656Z,25.07
2018-09-03T06:12:39.631Z,27.53
2018-09-03T06:15:08.351Z,25.10
2018-09-03T06:17:36.823Z,23.00
2018-09-03T06:20:05.510Z,26.23
2018-09-03T06:22:34.131Z,24.23
2018-09-03T06:25:02.649Z,20.10
2018-09-03T06:27:31.220Z,21.03
2018-09-03T06:29:59.775Z,21.43
2018-09-03T06:32:28.328Z,22.80
2018-09-03T06:34:56.852Z,19.27
2018-09-03T06:37:25.400Z,17.93
2018-09-03T06:39:53.939Z,20.93
2018-09-03T06:42:22.525Z,18.93
2018-09-03T06:44:51.113Z,22.47
2018-09-03T06:47:19.749Z,22.57
2018-09-03T06:49:48.311Z,20.87
2018-09-03T06:52:16.854Z,19.90
2018-09-03T06:54:45.409Z,20.73
2018-09-03T06:57:14.143Z,19.57
2018-09-03T06:59:42.748Z,19.10
2018-09-03T07:02:11.277Z,19.97
2018-09-03T07:04:40.427Z,20.70
2018-09-03T07:10:01.152Z,18.63
2018-09-03T07:12:29.618Z,20.17
2018-09-03T07:14:58.048Z,20.50
2018-09-03T07:17:26.508Z,21.00
2018-09-03T07:19:54.926Z,19.03
2018-09-03T07:22:23.395Z,19.23
2018-09-03T07:24:51.801Z,19.60
2018-09-03T07:27:20.265Z,20.00
2018-09-03T07:29:48.762Z,18.93
2018-09-03T07:32:17.174Z,19.33
2018-09-03T07:34:45.782Z,19.73
2018-09-03T07:37:14.209Z,18.57
2018-09-03T07:39:45.826Z,16.80
2018-09-03T07:42:14.210Z,15.40
2018-09-03T07:44:42.669Z,15.33
2018-09-03T07:47:11.064Z,15.30
2018-09-03T07:49:39.502Z,16.83
2018-09-03T07:52:07.926Z,17.13
2018-09-03T07:54:36.386Z,16.40
2018-09-03T07:57:04.830Z,18.07
2018-09-03T07:59:33.265Z,16.00
2018-09-03T08:02:02.097Z,15.13
2018-09-03T08:04:30.543Z,14.70
2018-09-03T08:06:59.053Z,14.13
2018-09-03T08:09:27.530Z,15.17
2018-09-03T08:11:56.466Z,15.67
2018-09-03T08:14:24.906Z,14.40
2018-09-03T08:16:53.373Z,14.13
2018-09-03T08:19:21.835Z,15.33
2018-09-03T08:21:50.345Z,13.77
2018-09-03T08:24:18.772Z,13.97
2018-09-03T08:26:47.254Z,13.50
2018-09-03T08:29:15.688Z,14.37
2018-09-03T08:31:44.191Z,13.53
2018-09-03T08:34:12.664Z,17.77
2018-09-03T08:36:41.225Z,13.53
2018-09-03T08:39:09.648Z,13.73
2018-09-03T08:41:38.098Z,14.90
2018-09-03T08:44:06.549Z,13.23
2018-09-03T08:46:35.038Z,13.40
2018-09-03T08:49:03.469Z,12.90
2018-09-03T08:51:31.989Z,13.10
2018-09-03T08:54:00.413Z,11.23
2018-09-03T08:56:28.895Z,11.90
2018-09-03T08:58:57.357Z,12.80
2018-09-03T09:01:25.825Z,11.73
2018-09-03T09:03:54.216Z,15.53
2018-09-03T09:06:22.793Z,13.60
2018-09-03T09:08:51.262Z,12.70
2018-09-03T09:11:19.784Z,10.97
2018-09-03T09:13:48.227Z,12.00
2018-09-03T09:16:16.684Z,12.17
2018-09-03T09:18:45.123Z,11.67
2018-09-03T09:21:13.510Z,10.87
2018-09-03T09:23:42.438Z,12.63
2018-09-03T09:26:10.912Z,13.13
2018-09-03T09:28:39.386Z,10.90
2018-09-03T09:31:07.861Z,12.07
2018-09-03T09:33:36.374Z,11.03
2018-09-03T09:36:04.824Z,11.33
2018-09-03T09:38:33.314Z,11.67
2018-09-03T09:41:01.796Z,11.60
2018-09-03T09:43:30.391Z,11.17
2018-09-03T09:45:58.857Z,10.40
2018-09-03T09:48:27.287Z,10.60
2018-09-03T09:50:55.808Z,10.30
2018-09-03T09:53:24.311Z,9.30
2018-09-03T09:55:52.883Z,10.63
2018-09-03T09:58:21.360Z,9.83
2018-09-03T10:00:55.046Z,10.10
2018-09-03T10:03:23.480Z,10.23
2018-09-03T10:05:51.914Z,9.50
2018-09-03T10:08:20.361Z,10.93
2018-09-03T10:10:48.754Z,10.43
2018-09-03T10:13:17.156Z,10.43
2018-09-03T10:15:45.638Z,11.23
2018-09-03T10:18:14.073Z,10.23
2018-09-03T10:20:42.561Z,11.80
2018-09-03T10:23:10.957Z,10.13
2018-09-03T10:25:39.417Z,8.50
2018-09-03T10:28:07.835Z,7.30
2018-09-03T10:30:36.611Z,7.43
2018-09-03T10:33:05.024Z,7.00
2018-09-03T10:35:33.468Z,6.83
2018-09-03T10:38:01.889Z,9.40
2018-09-03T10:40:30.375Z,7.00
2018-09-03T10:42:58.842Z,7.40
2018-09-03T10:45:27.374Z,7.40
2018-09-03T10:47:55.769Z,7.27
2018-09-03T10:50:24.265Z,6.33
2018-09-03T10:52:52.665Z,6.40
2018-09-03T10:55:21.063Z,6.00
2018-09-03T10:57:50.263Z,7.53
2018-09-03T11:00:18.660Z,5.27
2018-09-03T11:02:47.093Z,5.47
2018-09-03T11:05:15.596Z,6.03
2018-09-03T11:07:44.037Z,7.83
2018-09-03T11:10:12.458Z,5.53
2018-09-03T11:12:40.906Z,8.63
2018-09-03T11:15:09.395Z,5.80
2018-09-03T11:17:37.899Z,5.30
2018-09-03T11:20:08.731Z,4.90
2018-09-03T11:22:37.170Z,9.10
2018-09-03T11:25:05.694Z,5.07
2018-09-03T11:27:34.216Z,4.97
2018-09-03T11:30:02.668Z,6.63
2018-09-03T11:32:31.101Z,5.70
2018-09-03T11:34:59.525Z,5.23
2018-09-03T11:37:28.029Z,3.87
2018-09-03T11:39:56.474Z,4.03
2018-09-03T11:42:24.925Z,4.07
2018-09-03T11:44:53.386Z,4.63
2018-09-03T11:47:21.797Z,3.60
2018-09-03T11:49:50.295Z,3.90
2018-09-03T11:52:18.690Z,4.37
2018-09-03T11:54:48.248Z,4.43
2018-09-03T11:57:16.886Z,5.00
2018-09-03T11:59:45.317Z,3.50
2018-09-03T12:02:13.744Z,3.87
2018-09-03T12:04:42.243Z,3.93
2018-09-03T12:07:10.687Z,4.00
2018-09-03T12:09:39.136Z,5.37
2018-09-03T12:12:07.350Z,5.03
2018-09-03T12:14:39.530Z,5.10
2018-09-03T12:17:08.720Z,6.17
2018-09-03T12:19:37.198Z,4.77
2018-09-03T12:22:05.817Z,6.83
2018-09-03T12:24:34.257Z,5.73
2018-09-03T12:27:02.846Z,4.43
2018-09-03T12:29:31.286Z,4.10
2018-09-03T12:31:59.733Z,5.70
2018-09-03T12:34:28.189Z,5.63
2018-09-03T12:36:57.549Z,4.13
2018-09-03T12:39:26.030Z,5.73
2018-09-03T12:41:54.474Z,5.63
2018-09-03T12:44:22.913Z,4.40
2018-09-03T12:46:51.402Z,5.80
2018-09-03T12:49:19.820Z,4.00
2018-09-03T12:51:48.267Z,4.77
2018-09-03T12:54:16.662Z,4.40
2018-09-03T12:56:45.082Z,4.77
2018-09-03T12:59:13.490Z,4.10
2018-09-03T13:01:41.945Z,4.27
2018-09-03T13:04:10.358Z,4.80
2018-09-03T13:06:38.793Z,5.00
2018-09-03T13:09:08.045Z,3.40
2018-09-03T13:11:36.493Z,3.93
2018-09-03T13:14:04.937Z,4.00
2018-09-03T13:16:33.369Z,5.10
2018-09-03T13:19:01.795Z,3.70
2018-09-03T13:21:30.241Z,4.97
2018-09-03T13:23:58.789Z,6.33
2018-09-03T13:26:27.317Z,5.70
2018-09-03T13:28:55.712Z,3.80
2018-09-03T13:31:24.141Z,3.87
2018-09-03T13:33:52.601Z,4.10
2018-09-03T13:36:21.068Z,3.87
2018-09-03T13:38:49.469Z,4.50
2018-09-03T13:41:18.267Z,4.50
2018-09-03T13:43:46.754Z,4.10
2018-09-03T13:46:15.175Z,5.07
2018-09-03T13:48:43.667Z,3.73
2018-09-03T13:51:12.069Z,3.97
2018-09-03T13:53:41.240Z,3.70
2018-09-03T13:56:09.727Z,3.97
2018-09-03T13:58:38.277Z,4.80
2018-09-03T14:01:06.721Z,4.93
2018-09-03T14:03:35.444Z,4.23
2018-09-03T14:06:03.894Z,4.70
2018-09-03T14:08:32.393Z,5.67
2018-09-03T14:11:00.787Z,5.37
2018-09-03T14:13:29.827Z,4.40
2018-09-03T14:15:58.221Z,6.27
2018-09-03T14:18:27.012Z,4.10
2018-09-03T14:20:55.458Z,4.60
2018-09-03T14:23:23.889Z,3.40
2018-09-03T14:25:52.284Z,3.70
2018-09-03T14:28:20.745Z,4.37
2018-09-03T14:30:49.133Z,4.27
2018-09-03T14:33:19.502Z,3.93
2018-09-03T14:35:47.910Z,3.33
2018-09-03T14:38:16.285Z,3.80
2018-09-03T14:40:44.771Z,4.47
2018-09-03T14:43:13.236Z,5.67
2018-09-03T14:45:41.637Z,5.12
2018-09-03T14:48:10.166Z,3.77
2018-09-03T14:50:38.595Z,4.03
2018-09-03T14:53:06.997Z,3.40
2018-09-03T14:55:35.456Z,3.50
2018-09-03T14:58:03.829Z,3.30
2018-09-03T15:00:32.254Z,3.52
2018-09-03T15:03:00.661Z,3.90
2018-09-03T15:05:29.069Z,4.17
2018-09-03T15:07:57.457Z,3.57
2018-09-03T15:10:25.922Z,3.60
2018-09-03T15:12:54.314Z,7.85
2018-09-03T15:15:22.737Z,3.92
2018-09-03T15:17:51.165Z,3.22
2018-09-03T15:20:19.662Z,5.20
2018-09-03T15:22:48.052Z,4.97
2018-09-03T15:25:16.480Z,3.62
2018-09-03T15:27:44.878Z,4.67
2018-09-03T15:30:13.261Z,4.08
2018-09-03T15:32:41.689Z,3.90
2018-09-03T15:35:10.076Z,3.35
2018-09-03T15:37:38.511Z,3.83
2018-09-03T15:40:06.916Z,5.62
2018-09-03T15:42:35.353Z,10.48
2018-09-03T15:45:03.810Z,5.03
2018-09-03T15:47:32.293Z,5.87
2018-09-03T15:50:00.733Z,6.30
2018-09-03T15:52:29.174Z,4.33
2018-09-03T15:54:57.572Z,4.83
2018-09-03T15:57:25.990Z,5.13
2018-09-03T15:59:54.371Z,6.40
2018-09-03T16:02:22.791Z,6.03
2018-09-03T16:04:51.229Z,4.37
2018-09-03T16:07:19.696Z,5.03
2018-09-03T16:09:49.033Z,4.90
2018-09-03T16:12:17.468Z,4.40
2018-09-03T16:14:45.859Z,3.93
2018-09-03T16:17:14.232Z,4.93
2018-09-03T16:19:42.685Z,4.60
2018-09-03T16:22:11.585Z,4.17
2018-09-03T16:24:40.082Z,5.43
2018-09-03T16:27:08.465Z,4.17
2018-09-03T16:29:37.342Z,5.73
2018-09-03T16:32:05.758Z,4.50
2018-09-03T16:34:34.177Z,4.70
2018-09-03T16:37:02.536Z,4.80
2018-09-03T16:39:30.963Z,8.57
2018-09-03T16:41:59.411Z,5.50
2018-09-03T16:44:27.854Z,4.97
2018-09-03T16:46:56.250Z,5.40
2018-09-03T16:49:24.658Z,6.47
2018-09-03T16:51:53.068Z,8.23
2018-09-03T16:54:21.541Z,5.57
2018-09-03T16:56:49.949Z,5.70
2018-09-03T16:59:18.378Z,6.47
2018-09-03T17:01:46.802Z,6.20
2018-09-03T17:04:15.329Z,6.40
2018-09-03T17:06:43.813Z,6.30
2018-09-03T17:09:12.285Z,6.17
2018-09-03T17:11:40.715Z,6.77
2018-09-03T17:14:09.117Z,7.10
2018-09-03T17:16:37.528Z,7.70
2018-09-03T17:19:06.293Z,8.27
2018-09-03T17:21:34.699Z,7.53
2018-09-03T17:24:03.152Z,7.10
2018-09-03T17:26:31.573Z,6.40
2018-09-03T17:29:00.006Z,5.47
2018-09-03T17:31:28.457Z,6.33
2018-09-03T17:33:56.837Z,5.63
2018-09-03T17:36:25.248Z,7.70
2018-09-03T17:38:53.697Z,6.53
2018-09-03T17:41:22.122Z,6.73
2018-09-03T17:43:50.581Z,5.67
2018-09-03T17:46:19.077Z,6.83
2018-09-03T17:48:47.545Z,5.77
2018-09-03T17:51:16.003Z,7.00
2018-09-03T17:53:44.398Z,6.00
2018-09-03T17:56:12.820Z,6.53
2018-09-03T17:58:41.325Z,8.20
2018-09-03T18:01:11.166Z,6.23
2018-09-03T18:03:40.152Z,6.47
2018-09-03T18:06:08.809Z,6.67
2018-09-03T18:08:37.337Z,6.17
2018-09-03T18:11:05.785Z,6.37
2018-09-03T18:13:34.289Z,7.43
2018-09-03T18:16:02.684Z,7.30
2018-09-03T18:18:31.213Z,7.63
2018-09-03T18:20:59.768Z,8.37
2018-09-03T18:23:28.184Z,7.07
2018-09-03T18:25:56.606Z,6.40
2018-09-03T18:28:25.039Z,7.70
2018-09-03T18:30:53.453Z,9.33
2018-09-03T18:33:21.897Z,11.43
2018-09-03T18:35:50.341Z,10.70
2018-09-03T18:38:18.763Z,10.87
2018-09-03T18:40:47.281Z,12.83
2018-09-03T18:43:15.708Z,12.20
2018-09-03T18:45:44.153Z,11.00
2018-09-03T18:48:12.593Z,13.10
2018-09-03T18:50:40.981Z,11.00
2018-09-03T18:53:09.479Z,12.93
2018-09-03T18:55:37.873Z,11.37
2018-09-03T18:58:06.355Z,12.87
2018-09-03T19:00:34.826Z,13.30
2018-09-03T19:03:03.281Z,12.70
2018-09-03T19:05:31.740Z,13.60
2018-09-03T19:08:00.190Z,15.63
2018-09-03T19:10:28.612Z,15.43
2018-09-03T19:12:57.025Z,16.30
2018-09-03T19:15:25.460Z,17.57
2018-09-03T19:17:53.855Z,16.10
2018-09-03T19:20:22.285Z,15.40
2018-09-03T19:22:50.713Z,16.10
2018-09-03T19:25:19.169Z,15.97
2018-09-03T19:27:47.573Z,16.33
2018-09-03T19:30:16.003Z,16.17
2018-09-03T19:32:44.421Z,18.03
2018-09-03T19:35:12.867Z,17.50
2018-09-03T19:37:41.272Z,16.57
2018-09-03T19:40:09.761Z,16.23
2018-09-03T19:42:38.157Z,17.00
2018-09-03T19:45:06.677Z,17.13
2018-09-03T19:47:35.096Z,16.17
2018-09-03T19:50:03.543Z,17.10
2018-09-03T19:52:31.968Z,18.27
2018-09-03T19:55:00.402Z,17.80
2018-09-03T19:57:28.849Z,17.47
2018-09-03T19:59:57.271Z,19.90
2018-09-03T20:02:25.932Z,15.90
2018-09-03T20:04:54.353Z,15.57
2018-09-03T20:07:22.925Z,17.93
2018-09-03T20:09:51.337Z,19.10
2018-09-03T20:12:27.173Z,16.50
2018-09-03T20:14:55.618Z,18.57
2018-09-03T20:17:24.593Z,14.90
2018-09-03T20:19:53.661Z,17.67
2018-09-03T20:22:22.151Z,17.20
2018-09-03T20:24:50.694Z,17.83
2018-09-03T20:27:19.162Z,16.33
2018-09-03T20:29:47.589Z,17.47
2018-09-03T20:32:16.050Z,17.73
2018-09-03T20:34:44.453Z,18.70
2018-09-03T20:37:12.912Z,17.30
2018-09-03T20:39:41.322Z,18.17
2018-09-03T20:42:09.917Z,19.30
2018-09-03T20:44:38.386Z,19.10
2018-09-03T20:47:06.859Z,19.20
2018-09-03T20:49:35.234Z,17.70
2018-09-03T20:52:03.693Z,19.00
2018-09-03T20:54:32.197Z,18.23
2018-09-03T20:57:00.570Z,20.03
2018-09-03T20:59:29.077Z,16.57
2018-09-03T21:01:57.401Z,19.60
2018-09-03T21:04:25.810Z,20.07
2018-09-03T21:06:54.225Z,22.20
2018-09-03T21:09:22.699Z,21.93
2018-09-03T21:11:51.078Z,20.50
2018-09-03T21:14:19.589Z,20.93
2018-09-03T21:16:47.925Z,20.33
2018-09-03T21:19:16.380Z,21.77
2018-09-03T21:21:44.845Z,21.07
2018-09-03T21:24:13.270Z,21.97
2018-09-03T21:26:41.683Z,22.00
2018-09-03T21:29:10.125Z,19.33
2018-09-03T21:31:38.530Z,20.87
2018-09-03T21:34:06.954Z,21.60
2018-09-03T21:36:35.327Z,21.30
2018-09-03T21:39:04.531Z,21.70
2018-09-03T21:41:32.877Z,24.83
2018-09-03T21:44:01.300Z,21.27
2018-09-03T21:46:29.740Z,22.50
2018-09-03T21:48:58.135Z,20.47
2018-09-03T21:51:26.577Z,23.43
2018-09-03T21:53:54.977Z,21.93
2018-09-03T21:56:23.427Z,21.37
2018-09-03T21:58:51.824Z,21.37
2018-09-03T22:01:20.305Z,23.50
2018-09-03T22:03:48.673Z,24.00
2018-09-03T22:06:17.110Z,23.30
2018-09-03T22:08:45.548Z,24.50
2018-09-03T22:11:13.981Z,21.70
2018-09-03T22:13:42.353Z,22.60
2018-09-03T22:16:11.278Z,22.90
2018-09-03T22:18:40.578Z,21.50
2018-09-03T22:21:09.256Z,22.47
2018-09-03T22:23:38.448Z,22.23
2018-09-03T22:26:07.195Z,22.77
2018-09-03T22:28:35.837Z,24.77
2018-09-03T22:31:04.708Z,21.97
2018-09-03T22:33:33.116Z,23.43
2018-09-03T22:36:01.502Z,22.70
2018-09-03T22:38:29.921Z,22.47
2018-09-03T22:40:58.325Z,24.80
2018-09-03T22:43:26.740Z,22.00
2018-09-03T22:45:55.173Z,24.97
2018-09-03T22:48:23.582Z,25.23
2018-09-03T22:50:51.986Z,25.40
2018-09-03T22:53:20.441Z,24.50
2018-09-03T22:55:48.857Z,24.20
2018-09-03T22:58:17.365Z,26.43
2018-09-03T23:00:46.029Z,25.77
2018-09-03T23:03:14.452Z,26.60
2018-09-03T23:05:42.887Z,28.07
2018-09-03T23:08:11.284Z,27.77
2018-09-03T23:10:39.716Z,27.33
2018-09-03T23:13:08.149Z,28.83
2018-09-03T23:15:36.612Z,27.67
2018-09-03T23:18:05.512Z,23.23
2018-09-03T23:20:33.875Z,25.83
2018-09-03T23:23:02.302Z,23.53
2018-09-03T23:25:30.733Z,22.03
2018-09-03T23:27:59.137Z,21.43
2018-09-03T23:30:27.581Z,22.57
2018-09-03T23:32:55.969Z,21.37
2018-09-03T23:35:24.429Z,21.70
2018-09-03T23:37:52.811Z,21.27
2018-09-03T23:40:21.258Z,23.37
2018-09-03T23:42:49.644Z,22.70
2018-09-03T23:45:18.153Z,22.53
2018-09-03T23:47:46.613Z,23.87
2018-09-03T23:50:15.093Z,24.47
2018-09-03T23:52:43.478Z,21.57
2018-09-03T23:55:11.934Z,22.93
2018-09-03T23:57:40.408Z,22.40
